Time;durP1;ratioP1;P1;durP2;ratioP2;P2;SDS_P1;SDS_P2;PMS_P1;PMS_P2;Temp;Humidity;BMP_temperature;BMP_pressure;BME280_temperature;BME280_humidity;BME280_pressure;Samples;Min_cycle;Max_cycle;Signal;HPM_P1;HPM_P2
2022/02/11 00:00:55;;;;;;;3.00;2.10;;;3.90;99.90;;;;;;5008912;28;20467;-67
2022/02/11 00:06:20;;;;;;;3.57;1.70;;;3.80;99.90;;;;;;5013584;28;20403;-67
2022/02/11 00:08:42;;;;;;;2.70;2.40;;;3.90;99.90;;;;;;5013080;28;20168;-68
2022/02/11 00:11:07;;;;;;;3.50;2.23;;;3.90;99.90;;;;;;5013255;28;20424;-68
2022/02/11 00:13:33;;;;;;;2.73;2.53;;;3.90;99.90;;;;;;5012325;28;20410;-68
2022/02/11 00:15:58;;;;;;;2.33;2.17;;;3.90;99.90;;;;;;5013029;28;20172;-68
2022/02/11 00:18:24;;;;;;;2.40;1.80;;;3.90;99.90;;;;;;5013057;28;20259;-67
2022/02/11 00:20:51;;;;;;;3.90;2.23;;;3.90;99.90;;;;;;5012946;28;20211;-68
2022/02/11 00:23:18;;;;;;;1.67;1.50;;;3.90;99.90;;;;;;5012976;28;20259;-68
2022/02/11 00:25:50;;;;;;;1.63;1.43;;;3.90;99.90;;;;;;5012876;28;20909;-68
2022/02/11 00:29:04;;;;;;;3.07;1.50;;;3.90;99.90;;;;;;5012686;28;20712;-68
2022/02/11 00:33:40;;;;;;;1.83;1.70;;;3.90;99.90;;;;;;4993337;28;20411;-68
2022/02/11 00:36:09;;;;;;;1.73;1.63;;;3.90;99.90;;;;;;4993286;28;20411;-68
2022/02/11 00:47:23;;;;;;;2.00;1.90;;;4.00;99.90;;;;;;4993171;28;20568;-68
2022/02/11 01:03:55;;;;;;;2.00;1.90;;;4.00;99.90;;;;;;5029626;22;21143;-70
2022/02/11 01:06:21;;;;;;;1.77;1.67;;;4.10;99.90;;;;;;4992983;28;20885;-71
2022/02/11 01:08:46;;;;;;;1.83;1.60;;;4.10;99.90;;;;;;4993021;28;20535;-71
2022/02/11 01:11:18;;;;;;;8.70;1.50;;;4.00;99.90;;;;;;4992921;28;20559;-73
2022/02/11 01:13:43;;;;;;;2.27;2.17;;;4.10;99.90;;;;;;4993085;28;20682;-72
2022/02/11 01:16:15;;;;;;;1.50;1.40;;;4.10;99.90;;;;;;4975546;28;20511;-73
2022/02/11 01:18:46;;;;;;;1.30;1.20;;;4.10;99.90;;;;;;4993184;28;20303;-71
2022/02/11 01:21:20;;;;;;;1.37;1.27;;;4.10;99.90;;;;;;4993019;28;20547;-71
2022/02/11 01:23:58;;;;;;;3.03;1.37;;;4.10;99.90;;;;;;4992835;28;20437;-71
2022/02/11 01:31:45;;;;;;;2.07;1.70;;;4.10;99.90;;;;;;4992887;28;20625;-71
2022/02/11 01:34:30;;;;;;;2.13;1.40;;;4.10;99.90;;;;;;4993351;28;20424;-72
2022/02/11 01:45:12;;;;;;;1.73;1.63;;;4.10;99.90;;;;;;4992772;28;20404;-71
2022/02/11 01:50:42;;;;;;;2.93;1.63;;;4.10;99.90;;;;;;4992544;28;20471;-72
2022/02/11 01:56:10;;;;;;;2.13;1.87;;;4.10;99.90;;;;;;4992207;28;20412;-72
2022/02/11 02:08:56;;;;;;;1.10;1.10;;;4.20;99.90;;;;;;4993534;28;20416;-71
2022/02/11 02:10:17;;;;;;;1.87;1.57;;;4.20;99.90;;;;;;4992141;28;20413;-71
2022/02/11 02:18:46;;;;;;;1.53;1.13;;;4.20;99.90;;;;;;4992572;28;20913;-72
2022/02/11 02:21:33;;;;;;;1.63;1.53;;;4.20;99.90;;;;;;4991854;28;20510;-72
2022/02/11 02:26:08;;;;;;;1.77;1.67;;;4.10;99.90;;;;;;4992200;28;20499;-72
2022/02/11 02:29:39;;;;;;;2.03;1.93;;;4.20;99.90;;;;;;4992274;28;20168;-71
2022/02/11 02:32:24;;;;;;;1.97;1.83;;;4.20;99.90;;;;;;4992080;28;20431;-70
2022/02/11 02:37:24;;;;;;;3.70;2.60;;;4.30;99.90;;;;;;4991911;28;20443;-72
2022/02/11 02:59:04;;;;;;;2.87;2.40;;;4.30;99.90;;;;;;4996937;28;20407;-72
2022/02/11 03:01:49;;;;;;;5.20;2.93;;;4.30;99.90;;;;;;4996744;28;20871;-72
2022/02/11 03:14:43;;;;;;;1.60;1.23;;;4.40;99.90;;;;;;4995502;28;20439;-71
2022/02/11 03:16:21;;;;;;;4.20;1.87;;;4.40;99.90;;;;;;4995404;28;20450;-72
2022/02/11 03:51:23;;;;;;;2.77;1.97;;;4.60;99.90;;;;;;4994932;28;20934;-72
2022/02/11 03:54:18;;;;;;;4.97;2.60;;;4.70;99.90;;;;;;4994511;28;20518;-72
2022/02/11 03:57:26;;;;;;;4.13;2.30;;;4.70;99.90;;;;;;4994446;28;20470;-72
2022/02/11 04:08:25;;;;;;;2.10;2.00;;;4.70;99.90;;;;;;4994724;28;20460;-71
2022/02/11 04:20:18;;;;;;;2.67;2.23;;;4.70;99.90;;;;;;4994217;28;20454;-72
2022/02/11 04:22:58;;;;;;;2.80;2.60;;;4.70;99.90;;;;;;4993779;28;20486;-73
2022/02/11 04:52:38;;;;;;;3.87;3.20;;;4.60;99.90;;;;;;4994016;28;20761;-72
2022/02/11 04:53:33;;;;;;;3.97;2.73;;;4.70;99.90;;;;;;4993235;28;20474;-71
2022/02/11 04:55:39;;;;;;;5.03;2.90;;;4.50;99.90;;;;;;4993130;28;20408;-70
2022/02/11 05:00:48;;;;;;;5.77;4.60;;;4.60;99.90;;;;;;4993005;28;20514;-71
2022/02/11 05:03:15;;;;;;;3.77;3.37;;;4.60;99.90;;;;;;4992979;28;20950;-71
2022/02/11 05:05:49;;;;;;;3.67;2.97;;;4.50;99.90;;;;;;4993194;28;20551;-71
2022/02/11 05:08:19;;;;;;;3.93;3.40;;;4.50;99.90;;;;;;4993619;28;20423;-71
2022/02/11 05:10:46;;;;;;;5.73;4.00;;;4.50;99.90;;;;;;4995199;28;20468;-71
2022/02/11 05:13:12;;;;;;;4.03;3.20;;;4.40;99.90;;;;;;4978729;28;20439;-72
2022/02/11 05:15:38;;;;;;;6.43;2.80;;;4.50;99.90;;;;;;4994235;28;20463;-72
2022/02/11 05:18:05;;;;;;;2.57;2.37;;;4.40;99.90;;;;;;4994359;28;20412;-72
2022/02/11 05:20:31;;;;;;;3.80;3.47;;;4.40;99.90;;;;;;4997377;28;20455;-71
2022/02/11 05:22:56;;;;;;;5.30;3.20;;;4.40;99.90;;;;;;4997535;28;20431;-71
2022/02/11 05:25:22;;;;;;;6.00;4.03;;;4.40;99.90;;;;;;4994548;28;20173;-71
2022/02/11 05:27:47;;;;;;;11.13;5.80;;;4.50;99.90;;;;;;4993058;28;20276;-73
2022/02/11 05:30:13;;;;;;;6.27;3.53;;;4.50;99.90;;;;;;4992873;28;20187;-72
2022/02/11 05:32:39;;;;;;;10.00;3.13;;;4.50;99.90;;;;;;4992680;28;20197;-72
2022/02/11 05:35:05;;;;;;;2.80;2.37;;;4.40;99.90;;;;;;4992575;28;20173;-72
2022/02/11 05:37:30;;;;;;;5.97;4.03;;;4.40;99.90;;;;;;4992694;28;20264;-72
2022/02/11 05:39:56;;;;;;;7.43;5.23;;;4.40;99.90;;;;;;4992577;28;20630;-72
2022/02/11 05:42:21;;;;;;;7.63;2.37;;;4.40;99.90;;;;;;4975161;28;20185;-72
2022/02/11 05:44:46;;;;;;;4.40;3.80;;;4.40;99.90;;;;;;4992462;28;20644;-73
2022/02/11 05:47:12;;;;;;;1.93;1.77;;;4.40;99.90;;;;;;4992505;28;20176;-72
2022/02/11 05:49:38;;;;;;;4.27;3.70;;;4.40;99.90;;;;;;4992559;28;20176;-72
2022/02/11 05:52:04;;;;;;;4.30;3.27;;;4.40;99.90;;;;;;4992594;28;20196;-71
2022/02/11 05:54:29;;;;;;;7.80;3.13;;;4.40;99.90;;;;;;4992394;28;20703;-72
2022/02/11 05:56:55;;;;;;;7.63;2.97;;;4.40;99.90;;;;;;4992596;28;20507;-72
2022/02/11 05:59:20;;;;;;;4.27;3.43;;;4.40;99.90;;;;;;4992423;28;20262;-72
2022/02/11 06:01:46;;;;;;;5.43;2.90;;;4.40;99.90;;;;;;4992428;28;20165;-72
2022/02/11 06:04:11;;;;;;;3.10;2.87;;;4.30;99.90;;;;;;4992923;28;20188;-71
2022/02/11 06:06:37;;;;;;;2.47;2.27;;;4.40;99.90;;;;;;4993132;28;20640;-72
2022/02/11 06:09:03;;;;;;;6.23;3.10;;;4.40;99.90;;;;;;4992972;28;20165;-72
2022/02/11 06:11:29;;;;;;;3.10;2.67;;;4.40;99.90;;;;;;4993409;28;20184;-72
2022/02/11 06:13:56;;;;;;;2.37;2.13;;;4.40;99.90;;;;;;4997403;28;20841;-72
2022/02/11 06:16:22;;;;;;;4.27;3.13;;;4.40;99.90;;;;;;4997382;28;20806;-71
2022/02/11 06:18:48;;;;;;;3.03;1.90;;;4.40;99.90;;;;;;4997644;28;20499;-72
2022/02/11 06:21:14;;;;;;;3.97;3.57;;;4.40;99.90;;;;;;5001527;28;21002;-72
2022/02/11 06:23:40;;;;;;;4.50;2.80;;;4.40;99.90;;;;;;5007194;28;20428;-72
2022/02/11 06:26:05;;;;;;;3.37;2.50;;;4.40;99.90;;;;;;5013313;28;20317;-71
2022/02/11 06:28:30;;;;;;;2.80;2.07;;;4.40;99.90;;;;;;5013905;28;20173;-71
2022/02/11 06:30:56;;;;;;;8.97;1.70;;;4.40;99.90;;;;;;5013656;28;20173;-73
2022/02/11 06:33:21;;;;;;;2.27;2.10;;;4.40;99.90;;;;;;5013370;28;20247;-71
2022/02/11 06:35:47;;;;;;;2.00;1.90;;;4.40;99.90;;;;;;5012278;28;20184;-71
2022/02/11 06:38:13;;;;;;;2.50;2.17;;;4.40;99.90;;;;;;5011294;28;20173;-71
2022/02/11 06:40:38;;;;;;;2.80;2.30;;;4.40;99.90;;;;;;5005899;28;20741;-71
2022/02/11 06:43:06;;;;;;;3.77;2.63;;;4.50;99.90;;;;;;4998165;28;20742;-71
2022/02/11 06:45:32;;;;;;;3.97;2.40;;;4.50;99.90;;;;;;4998293;28;20165;-72
2022/02/11 06:47:57;;;;;;;1.40;1.30;;;4.50;99.90;;;;;;5005628;28;20420;-71
2022/02/11 06:50:23;;;;;;;3.97;2.93;;;4.50;99.90;;;;;;4988206;28;20415;-72
2022/02/11 06:52:49;;;;;;;3.50;2.10;;;4.50;99.90;;;;;;5004189;28;20204;-72
2022/02/11 06:55:15;;;;;;;2.27;2.00;;;4.50;99.90;;;;;;5003774;28;20217;-72
2022/02/11 06:57:42;;;;;;;2.13;1.90;;;4.40;99.90;;;;;;4998503;28;20422;-72
2022/02/11 07:00:09;;;;;;;3.00;2.03;;;4.50;99.90;;;;;;5001327;28;20188;-72
2022/02/11 07:02:34;;;;;;;2.23;2.00;;;4.50;99.90;;;;;;5010308;28;20471;-72
2022/02/11 07:05:00;;;;;;;1.97;1.80;;;4.50;99.90;;;;;;5008336;28;20412;-71
2022/02/11 07:07:25;;;;;;;1.70;1.50;;;4.50;99.90;;;;;;5007800;28;20172;-71
2022/02/11 07:09:53;;;;;;;2.67;2.40;;;4.60;99.90;;;;;;5015431;22;20236;-71
2022/02/11 07:12:18;;;;;;;3.20;2.13;;;4.50;99.90;;;;;;4981447;28;20308;-71
2022/02/11 07:14:44;;;;;;;2.50;2.03;;;4.60;99.90;;;;;;4983930;28;20449;-71
2022/02/11 07:17:11;;;;;;;3.07;1.90;;;4.60;99.90;;;;;;4975731;28;20699;-71
2022/02/11 07:19:37;;;;;;;1.60;1.40;;;4.60;99.90;;;;;;4976439;28;20269;-69
2022/02/11 07:22:03;;;;;;;2.60;1.90;;;4.60;99.90;;;;;;4975545;28;20455;-70
2022/02/11 07:24:29;;;;;;;2.70;2.50;;;4.50;99.90;;;;;;4977512;28;20924;-71
2022/02/11 07:26:55;;;;;;;9.43;2.70;;;4.60;99.90;;;;;;4977799;28;20640;-70
2022/02/11 07:29:21;;;;;;;2.73;2.27;;;4.50;99.90;;;;;;4984527;28;20432;-69
2022/02/11 07:31:46;;;;;;;3.27;3.00;;;4.60;99.90;;;;;;4994839;28;20408;-70
2022/02/11 07:34:11;;;;;;;2.67;2.47;;;4.60;99.90;;;;;;4995196;28;20643;-71
2022/02/11 07:36:37;;;;;;;5.80;3.13;;;4.60;99.90;;;;;;4995264;28;20173;-70
2022/02/11 07:39:05;;;;;;;2.47;2.10;;;4.50;99.90;;;;;;4994487;28;20203;-69
2022/02/11 07:41:30;;;;;;;4.00;1.97;;;4.60;99.90;;;;;;4994588;28;20546;-69
2022/02/11 07:43:56;;;;;;;4.80;3.00;;;4.70;99.90;;;;;;4988440;28;20464;-69
2022/02/11 07:46:21;;;;;;;2.87;2.63;;;4.60;99.90;;;;;;4975145;28;20182;-70
2022/02/11 07:48:47;;;;;;;8.03;4.07;;;4.60;99.90;;;;;;4957538;28;20282;-70
2022/02/11 07:51:13;;;;;;;1.73;1.60;;;4.60;99.90;;;;;;4975248;28;20174;-69
2022/02/11 07:53:38;;;;;;;3.27;2.97;;;4.60;99.90;;;;;;4975192;28;20432;-69
2022/02/11 07:56:04;;;;;;;3.60;2.77;;;4.60;99.90;;;;;;4975037;28;20660;-69
2022/02/11 07:58:30;;;;;;;2.63;2.17;;;4.70;99.90;;;;;;4974885;28;20184;-69
2022/02/11 08:00:57;;;;;;;4.83;3.63;;;4.60;99.90;;;;;;4975246;28;20465;-70
2022/02/11 08:03:25;;;;;;;5.93;2.37;;;4.60;99.90;;;;;;4974689;28;20174;-69
2022/02/11 08:05:51;;;;;;;3.80;2.80;;;4.60;99.90;;;;;;4974467;28;20424;-69
2022/02/11 08:08:16;;;;;;;5.07;3.47;;;4.60;99.90;;;;;;4974456;28;20413;-69
2022/02/11 08:10:42;;;;;;;6.93;3.60;;;4.70;99.90;;;;;;4981563;28;20173;-69
2022/02/11 08:13:07;;;;;;;4.13;2.30;;;4.60;99.90;;;;;;4993997;28;20177;-70
2022/02/11 08:15:33;;;;;;;4.97;4.53;;;4.60;99.90;;;;;;4993889;28;20678;-70
2022/02/11 08:17:58;;;;;;;4.47;2.73;;;4.60;99.90;;;;;;4993803;28;20173;-69
2022/02/11 08:20:24;;;;;;;3.37;3.13;;;4.70;99.90;;;;;;4993514;28;20204;-70
2022/02/11 08:22:51;;;;;;;2.80;2.57;;;4.70;99.90;;;;;;4994378;28;20706;-71
2022/02/11 08:25:16;;;;;;;2.60;2.40;;;4.70;99.90;;;;;;4993966;28;20161;-70
2022/02/11 08:27:44;;;;;;;9.67;2.63;;;4.70;99.90;;;;;;4994077;28;20404;-70
2022/02/11 08:30:11;;;;;;;4.27;2.10;;;4.80;99.90;;;;;;4993862;28;20224;-70
2022/02/11 08:32:36;;;;;;;2.40;2.20;;;4.60;99.90;;;;;;4993583;28;20416;-71
2022/02/11 08:35:02;;;;;;;6.60;2.63;;;4.60;99.90;;;;;;4993037;28;20407;-70
2022/02/11 08:37:27;;;;;;;3.00;2.80;;;4.70;99.90;;;;;;4993732;28;20537;-71
2022/02/11 08:39:53;;;;;;;3.67;2.47;;;4.70;99.90;;;;;;4993301;28;20444;-71
2022/02/11 08:42:21;;;;;;;3.57;3.23;;;4.70;99.90;;;;;;4993608;28;20272;-70
2022/02/11 08:44:47;;;;;;;3.03;1.97;;;4.70;99.90;;;;;;4986483;28;20173;-69
2022/02/11 08:47:13;;;;;;;2.37;2.17;;;4.80;99.90;;;;;;4974038;28;20408;-69
2022/02/11 08:49:39;;;;;;;5.73;2.97;;;4.80;99.90;;;;;;4973701;28;20549;-69
2022/02/11 08:52:05;;;;;;;3.03;1.90;;;4.80;99.90;;;;;;4974171;28;20609;-70
2022/02/11 08:54:31;;;;;;;2.00;1.77;;;4.80;99.90;;;;;;4973729;28;20405;-69
2022/02/11 08:56:57;;;;;;;4.83;2.27;;;4.80;99.90;;;;;;4973953;28;20456;-70
2022/02/11 08:59:22;;;;;;;3.10;2.17;;;4.90;99.90;;;;;;4973769;28;20197;-70
2022/02/11 09:01:48;;;;;;;1.87;1.77;;;4.70;99.90;;;;;;4973666;28;20236;-70
2022/02/11 09:04:14;;;;;;;1.90;1.70;;;4.60;99.90;;;;;;4973463;28;20177;-69
2022/02/11 09:06:39;;;;;;;2.20;1.93;;;4.60;99.90;;;;;;4956349;28;20177;-70
2022/02/11 09:09:08;;;;;;;10.93;3.27;;;4.60;99.90;;;;;;4973401;28;20205;-70
2022/02/11 09:11:33;;;;;;;1.77;1.67;;;4.70;99.90;;;;;;4979769;28;20169;-70
2022/02/11 09:13:59;;;;;;;2.43;2.23;;;4.80;99.90;;;;;;4992597;28;20775;-70
2022/02/11 09:16:24;;;;;;;1.60;1.50;;;4.80;99.90;;;;;;4992850;28;20173;-70
2022/02/11 09:18:50;;;;;;;4.20;2.70;;;5.00;99.90;;;;;;4991363;28;20612;-70
2022/02/11 09:21:15;;;;;;;3.30;2.07;;;5.30;99.90;;;;;;4992787;28;20607;-70
2022/02/11 09:23:41;;;;;;;6.43;3.13;;;5.30;99.90;;;;;;4992839;28;20200;-70
2022/02/11 09:26:06;;;;;;;6.23;2.63;;;5.40;99.90;;;;;;4985458;28;20255;-69
2022/02/11 09:28:32;;;;;;;1.97;1.67;;;5.50;99.90;;;;;;4992630;28;20221;-69
2022/02/11 09:30:58;;;;;;;10.13;2.57;;;5.70;99.90;;;;;;4992586;28;20169;-70
2022/02/11 09:33:23;;;;;;;4.67;2.77;;;5.60;99.90;;;;;;4992348;28;20173;-69
2022/02/11 09:35:50;;;;;;;1.90;1.60;;;5.70;99.90;;;;;;4989431;28;20252;-70
2022/02/11 09:38:18;;;;;;;2.47;2.03;;;5.60;99.90;;;;;;4992189;28;20181;-70
2022/02/11 09:40:50;;;;;;;2.97;2.50;;;5.60;99.90;;;;;;4968420;28;20456;-70
2022/02/11 09:43:17;;;;;;;4.60;1.80;;;5.60;99.90;;;;;;4973246;28;20405;-70
2022/02/11 09:45:43;;;;;;;2.90;2.00;;;5.70;99.90;;;;;;4972791;28;20926;-69
2022/02/11 09:48:09;;;;;;;3.57;2.90;;;5.50;99.90;;;;;;4955015;28;20496;-69
2022/02/11 09:50:35;;;;;;;3.47;2.37;;;5.50;99.90;;;;;;4972962;28;20193;-69
2022/02/11 09:53:00;;;;;;;3.27;2.30;;;5.70;99.90;;;;;;4973131;28;20419;-70
2022/02/11 09:55:34;;;;;;;4.80;2.27;;;5.80;99.90;;;;;;4984079;28;20177;-70
2022/02/11 09:58:01;;;;;;;2.87;2.67;;;5.90;99.90;;;;;;4992216;28;20177;-69
2022/02/11 10:00:27;;;;;;;1.90;1.63;;;6.00;99.90;;;;;;4992096;28;21033;-71
2022/02/11 10:03:01;;;;;;;1.73;1.63;;;5.80;99.90;;;;;;4992167;28;20396;-71
2022/02/11 10:05:27;;;;;;;3.43;2.20;;;6.00;99.90;;;;;;4992136;28;20922;-71
2022/02/11 10:07:54;;;;;;;2.87;2.67;;;5.70;99.90;;;;;;4992509;28;20894;-69
2022/02/11 10:10:39;;;;;;;2.60;2.23;;;5.70;99.90;;;;;;4991921;28;20458;-69
2022/02/11 10:13:10;;;;;;;8.33;3.73;;;5.80;99.90;;;;;;4991635;28;20838;-69
2022/02/11 10:15:38;;;;;;;2.90;2.70;;;5.80;99.90;;;;;;4992035;28;20770;-70
2022/02/11 10:18:07;;;;;;;33.63;16.33;;;5.80;99.90;;;;;;4992303;28;20919;-70
2022/02/11 10:20:43;;;;;;;28.27;16.47;;;5.90;99.90;;;;;;4992135;28;20518;-69
2022/02/11 10:23:12;;;;;;;34.23;17.13;;;6.70;99.90;;;;;;4992053;28;20412;-70
2022/02/11 10:26:06;;;;;;;3.77;2.07;;;6.60;99.90;;;;;;4991960;28;20416;-70
2022/02/11 10:28:35;;;;;;;4.37;2.83;;;6.30;99.90;;;;;;4991811;28;20508;-69
2022/02/11 10:31:20;;;;;;;2.30;2.20;;;6.30;99.90;;;;;;4991547;28;20458;-70
2022/02/11 10:34:03;;;;;;;5.20;4.77;;;6.30;99.90;;;;;;4991856;28;20491;-70
2022/02/11 10:36:36;;;;;;;5.30;3.77;;;6.40;99.90;;;;;;4992463;28;20507;-70
2022/02/11 10:39:04;;;;;;;2.90;2.50;;;6.20;99.90;;;;;;4991861;28;20483;-70
2022/02/11 10:41:32;;;;;;;3.17;2.47;;;6.40;99.90;;;;;;4991734;28;20459;-69
2022/02/11 10:43:59;;;;;;;3.27;3.00;;;6.00;99.90;;;;;;4991647;28;20402;-70
2022/02/11 10:46:25;;;;;;;3.57;2.30;;;6.00;99.90;;;;;;4991695;28;20926;-69
2022/02/11 10:48:51;;;;;;;6.30;3.10;;;5.90;99.90;;;;;;4991850;28;20416;-70
2022/02/11 10:51:23;;;;;;;4.83;2.07;;;5.90;99.90;;;;;;4991773;28;20275;-70
2022/02/11 10:53:49;;;;;;;2.20;2.00;;;5.90;99.90;;;;;;4991870;28;20495;-70
2022/02/11 10:56:15;;;;;;;2.47;2.27;;;5.90;99.90;;;;;;4991645;28;20982;-71
2022/02/11 10:58:51;;;;;;;2.97;2.43;;;5.60;99.90;;;;;;4993371;28;20507;-71
2022/02/11 11:01:16;;;;;;;4.50;3.40;;;5.40;99.90;;;;;;4995677;28;20881;-72
2022/02/11 11:03:44;;;;;;;2.90;2.10;;;5.30;99.90;;;;;;4995492;28;20491;-72
2022/02/11 11:06:10;;;;;;;2.70;2.40;;;5.20;99.90;;;;;;4995311;28;20166;-72
2022/02/11 11:08:38;;;;;;;2.97;2.70;;;5.20;99.90;;;;;;4995101;28;20870;-72
2022/02/11 11:11:10;;;;;;;6.60;5.70;;;5.30;99.90;;;;;;4995284;28;20412;-72
2022/02/11 11:13:39;;;;;;;3.83;2.90;;;5.60;99.90;;;;;;4995269;28;20832;-71
2022/02/11 11:16:07;;;;;;;4.23;2.90;;;5.60;99.90;;;;;;4995121;28;20775;-72
2022/02/11 11:18:36;;;;;;;4.27;2.37;;;5.70;99.90;;;;;;4995275;28;20848;-71
2022/02/11 11:21:04;;;;;;;3.40;3.10;;;6.20;99.90;;;;;;4995104;28;20514;-72
2022/02/11 11:23:31;;;;;;;6.00;2.93;;;6.00;99.90;;;;;;4995185;28;20407;-73
2022/02/11 11:26:10;;;;;;;3.53;3.13;;;6.60;99.90;;;;;;4994705;28;20412;-70
2022/02/11 11:28:44;;;;;;;2.17;1.97;;;6.30;99.90;;;;;;4994899;28;20961;-69
2022/02/11 11:31:10;;;;;;;3.23;2.33;;;6.30;99.90;;;;;;4994727;28;20431;-69
2022/02/11 11:33:36;;;;;;;9.70;6.77;;;6.70;99.90;;;;;;4994701;28;20408;-71
2022/02/11 11:36:05;;;;;;;4.07;2.53;;;6.80;99.90;;;;;;4994597;28;20419;-69
2022/02/11 11:38:48;;;;;;;2.57;2.20;;;7.10;99.90;;;;;;4994539;28;20219;-71
2022/02/11 11:41:35;;;;;;;6.40;2.77;;;7.30;99.90;;;;;;4994420;28;20467;-70
2022/02/11 11:44:16;;;;;;;4.80;2.30;;;7.20;99.90;;;;;;4994705;28;20495;-70
2022/02/11 11:46:52;;;;;;;2.90;2.47;;;7.30;99.90;;;;;;4994646;28;20478;-70
2022/02/11 11:49:21;;;;;;;7.23;2.43;;;7.50;99.90;;;;;;4994330;28;20440;-70
2022/02/11 11:51:46;;;;;;;4.27;2.67;;;7.60;99.90;;;;;;4994529;28;20496;-71
2022/02/11 11:54:24;;;;;;;3.87;2.20;;;7.70;99.90;;;;;;4994472;28;20495;-71
2022/02/11 11:57:01;;;;;;;1.70;1.60;;;7.80;99.90;;;;;;4976756;28;20184;-71
2022/02/11 11:59:29;;;;;;;4.10;2.30;;;8.00;99.90;;;;;;4994385;28;20429;-71
2022/02/11 12:02:25;;;;;;;3.77;2.37;;;7.50;99.90;;;;;;4994106;28;20463;-71
2022/02/11 12:04:58;;;;;;;2.20;1.80;;;7.40;99.90;;;;;;4985908;28;20420;-71
2022/02/11 12:07:34;;;;;;;2.17;1.97;;;7.30;99.90;;;;;;4993911;28;20471;-70
2022/02/11 12:10:01;;;;;;;1.43;1.33;;;7.10;99.90;;;;;;4992644;28;20851;-71
2022/02/11 12:12:31;;;;;;;1.87;1.70;;;7.00;99.90;;;;;;4993485;28;20416;-71
2022/02/11 12:14:59;;;;;;;2.13;1.93;;;7.00;99.90;;;;;;4993651;28;20906;-71
2022/02/11 12:17:25;;;;;;;4.80;2.00;;;6.70;99.90;;;;;;4993538;28;20507;-71
2022/02/11 12:19:52;;;;;;;2.67;2.07;;;6.70;99.90;;;;;;4993634;28;20432;-71
2022/02/11 12:22:20;;;;;;;2.40;2.20;;;6.80;99.90;;;;;;4993823;28;20419;-71
2022/02/11 12:27:40;;;;;;;1.67;1.57;;;7.00;99.90;;;;;;4994148;28;20408;-71
2022/02/11 12:30:07;;;;;;;3.30;3.00;;;6.90;99.90;;;;;;4993665;28;20477;-71
2022/02/11 12:32:59;;;;;;;2.30;1.77;;;6.50;99.90;;;;;;4993211;28;20892;-71
2022/02/11 12:35:28;;;;;;;3.33;2.63;;;6.60;99.90;;;;;;4970356;28;20451;-70
2022/02/11 12:37:56;;;;;;;1.50;1.40;;;6.60;99.90;;;;;;4977648;28;20427;-70
2022/02/11 12:40:25;;;;;;;4.03;1.50;;;6.30;99.90;;;;;;4993459;28;20501;-69
2022/02/11 12:42:59;;;;;;;1.87;1.73;;;6.50;99.90;;;;;;4993554;28;20906;-70
2022/02/11 12:45:32;;;;;;;2.87;2.67;;;6.80;99.90;;;;;;4993155;28;20408;-70
2022/02/11 12:47:58;;;;;;;1.70;1.60;;;6.80;99.90;;;;;;4993087;28;20774;-69
2022/02/11 12:50:32;;;;;;;1.60;1.27;;;6.80;99.90;;;;;;4993292;28;20451;-70
2022/02/11 12:53:00;;;;;;;4.53;1.43;;;6.70;99.90;;;;;;4993181;28;20438;-70
2022/02/11 12:55:26;;;;;;;2.03;1.93;;;6.70;99.90;;;;;;4993031;28;20411;-70
2022/02/11 12:57:53;;;;;;;1.50;1.40;;;6.60;99.90;;;;;;4993229;28;20825;-70
2022/02/11 13:00:24;;;;;;;1.93;1.83;;;6.40;99.90;;;;;;4993298;28;20467;-71
2022/02/11 13:02:51;;;;;;;4.67;1.90;;;6.70;99.90;;;;;;4993182;28;20413;-71
2022/02/11 13:05:20;;;;;;;2.13;2.03;;;7.00;99.90;;;;;;4992984;28;20404;-70
2022/02/11 13:07:48;;;;;;;4.17;2.10;;;7.10;99.90;;;;;;4992903;28;20409;-71
2022/02/11 13:10:22;;;;;;;2.20;1.90;;;7.20;99.90;;;;;;4993068;28;20843;-71
2022/02/11 13:12:50;;;;;;;3.40;1.73;;;7.30;99.90;;;;;;4992577;28;20483;-71
2022/02/11 13:15:17;;;;;;;2.93;2.50;;;7.30;99.90;;;;;;4992681;28;20471;-72
2022/02/11 13:17:44;;;;;;;2.47;2.27;;;7.20;99.90;;;;;;4992652;28;20412;-73
2022/02/11 13:20:22;;;;;;;4.00;1.83;;;7.20;99.90;;;;;;4992474;28;20455;-72
2022/02/11 13:22:50;;;;;;;2.90;2.17;;;7.00;99.90;;;;;;4992438;28;20470;-72
2022/02/11 13:25:16;;;;;;;3.23;2.20;;;6.70;99.90;;;;;;4992508;28;20407;-72
2022/02/11 13:27:53;;;;;;;2.20;2.00;;;6.70;99.90;;;;;;4992570;28;20400;-72
2022/02/11 13:30:27;;;;;;;4.20;2.20;;;6.60;99.90;;;;;;4992603;28;20435;-72
2022/02/11 13:32:54;;;;;;;4.53;2.47;;;6.60;99.90;;;;;;4992291;28;20416;-72
2022/02/11 13:35:19;;;;;;;5.80;2.20;;;6.50;99.90;;;;;;4975019;28;20842;-72
2022/02/11 13:37:51;;;;;;;4.07;2.60;;;6.70;99.90;;;;;;4992696;28;20411;-72
2022/02/11 13:40:27;;;;;;;3.07;2.87;;;7.00;99.90;;;;;;4974919;28;20317;-72
2022/02/11 13:43:04;;;;;;;2.70;2.50;;;7.30;99.90;;;;;;4992276;28;20412;-72
2022/02/11 13:45:49;;;;;;;2.20;2.00;;;7.00;99.90;;;;;;4992226;28;20410;-73
2022/02/11 13:48:16;;;;;;;2.33;1.93;;;6.80;99.90;;;;;;4974933;28;20434;-72
2022/02/11 13:51:05;;;;;;;3.00;2.80;;;7.10;99.90;;;;;;4992525;28;20507;-73
2022/02/11 13:53:38;;;;;;;2.23;1.87;;;7.10;99.90;;;;;;4992296;28;20448;-72
2022/02/11 13:56:15;;;;;;;2.90;2.60;;;6.90;99.90;;;;;;4992198;28;20930;-72
2022/02/11 13:59:01;;;;;;;3.30;3.10;;;7.00;99.90;;;;;;4992221;28;20477;-73
2022/02/11 14:01:31;;;;;;;2.13;1.93;;;6.70;99.90;;;;;;4992091;28;20554;-73
2022/02/11 14:03:59;;;;;;;2.33;1.87;;;6.60;99.90;;;;;;4992035;28;20400;-73
2022/02/11 14:06:24;;;;;;;2.83;2.50;;;6.80;99.90;;;;;;4991991;28;20427;-73
2022/02/11 14:08:50;;;;;;;2.53;2.33;;;6.70;99.90;;;;;;4992058;28;20590;-73
2022/02/11 14:11:20;;;;;;;4.10;2.60;;;6.70;99.90;;;;;;4992053;28;20640;-72
2022/02/11 14:13:49;;;;;;;2.60;2.40;;;6.50;99.90;;;;;;4991921;28;20492;-73
2022/02/11 14:16:16;;;;;;;3.63;2.50;;;6.40;99.90;;;;;;4990891;28;20411;-74
2022/02/11 14:18:42;;;;;;;3.77;3.30;;;6.10;99.90;;;;;;4990630;28;20795;-72
2022/02/11 14:21:13;;;;;;;3.40;2.30;;;6.00;99.90;;;;;;4991015;28;20458;-71
2022/02/11 14:23:38;;;;;;;2.50;2.40;;;5.90;99.90;;;;;;4991624;28;20519;-72
2022/02/11 14:26:04;;;;;;;2.47;2.27;;;5.90;99.90;;;;;;4991827;28;20446;-72
2022/02/11 14:28:30;;;;;;;2.63;2.43;;;5.90;99.90;;;;;;4991864;28;20200;-73
2022/02/11 14:30:56;;;;;;;4.00;3.50;;;6.00;99.90;;;;;;4992272;28;20252;-72
2022/02/11 14:33:22;;;;;;;4.10;3.43;;;6.30;99.90;;;;;;4993278;28;20778;-72
2022/02/11 14:35:49;;;;;;;4.93;2.90;;;6.10;99.90;;;;;;4995668;28;20416;-72
2022/02/11 14:38:14;;;;;;;4.03;2.60;;;6.00;99.90;;;;;;4995715;28;20404;-72
2022/02/11 14:41:45;;;;;;;5.13;3.63;;;6.10;99.90;;;;;;4995819;28;20447;-73
2022/02/11 14:43:29;;;;;;;3.00;2.80;;;6.20;99.90;;;;;;4995822;28;20173;-72
2022/02/11 14:45:55;;;;;;;3.43;2.90;;;6.00;99.90;;;;;;4995431;28;20427;-72
2022/02/11 14:48:21;;;;;;;3.73;3.43;;;5.90;99.90;;;;;;4995618;28;20404;-72
2022/02/11 14:50:46;;;;;;;5.73;3.30;;;5.80;99.90;;;;;;4995396;28;20478;-73
2022/02/11 14:53:13;;;;;;;2.00;1.90;;;5.70;99.90;;;;;;4995275;28;20209;-72
2022/02/11 14:55:38;;;;;;;4.20;2.60;;;5.80;99.90;;;;;;4995207;28;20415;-73
2022/02/11 14:58:04;;;;;;;5.10;3.27;;;5.70;99.90;;;;;;4995516;28;20187;-73
2022/02/11 15:00:30;;;;;;;4.27;3.97;;;5.80;99.90;;;;;;4995538;28;20683;-73
2022/02/11 15:02:56;;;;;;;5.03;3.30;;;5.80;99.90;;;;;;4997096;28;20181;-72
2022/02/11 15:05:22;;;;;;;3.80;2.93;;;5.90;99.90;;;;;;4995639;28;20252;-72
2022/02/11 15:07:48;;;;;;;3.43;3.03;;;6.10;99.90;;;;;;4995115;28;20420;-72
2022/02/11 15:10:13;;;;;;;6.70;3.70;;;6.00;99.90;;;;;;4994717;28;20288;-72
2022/02/11 15:12:39;;;;;;;6.47;3.43;;;5.90;99.90;;;;;;4995054;28;20440;-73
2022/02/11 15:15:05;;;;;;;3.97;2.40;;;6.10;99.90;;;;;;4994757;28;20177;-73
2022/02/11 15:17:30;;;;;;;3.53;3.03;;;6.00;99.90;;;;;;4995072;28;20222;-73
2022/02/11 15:19:56;;;;;;;3.30;3.00;;;6.00;99.90;;;;;;4994820;28;20424;-73
2022/02/11 15:22:21;;;;;;;2.43;2.23;;;6.00;99.90;;;;;;4993031;28;20838;-73
2022/02/11 15:24:48;;;;;;;3.13;2.80;;;6.10;99.90;;;;;;4984628;28;20199;-73
2022/02/11 15:27:16;;;;;;;2.77;2.53;;;6.20;99.90;;;;;;4977474;28;20228;-72
2022/02/11 15:29:42;;;;;;;3.10;2.80;;;6.00;99.90;;;;;;4975355;28;20806;-72
2022/02/11 15:32:11;;;;;;;3.10;2.50;;;5.90;99.90;;;;;;4979837;28;20490;-73
2022/02/11 15:34:38;;;;;;;5.30;3.20;;;5.90;99.90;;;;;;4975343;28;20412;-71
2022/02/11 15:37:05;;;;;;;4.30;2.60;;;5.90;99.90;;;;;;4975236;28;20503;-71
2022/02/11 15:39:30;;;;;;;3.10;1.90;;;6.00;99.90;;;;;;4977206;28;20931;-71
2022/02/11 15:41:56;;;;;;;3.13;2.83;;;5.90;99.90;;;;;;4974959;28;20466;-72
2022/02/11 15:44:21;;;;;;;2.80;2.60;;;5.80;99.90;;;;;;4973920;28;20166;-72
2022/02/11 15:46:47;;;;;;;4.03;3.73;;;5.80;99.90;;;;;;4974979;28;20176;-73
2022/02/11 15:49:12;;;;;;;2.50;2.07;;;5.70;99.90;;;;;;4975122;28;20196;-72
2022/02/11 15:51:38;;;;;;;4.30;2.63;;;5.70;99.90;;;;;;4975213;28;20181;-72
2022/02/11 15:54:04;;;;;;;2.60;2.17;;;5.60;99.90;;;;;;4975121;28;20197;-73
2022/02/11 15:56:29;;;;;;;2.70;2.50;;;5.50;99.90;;;;;;4977477;28;20796;-73
2022/02/11 15:58:55;;;;;;;3.60;2.40;;;5.40;99.90;;;;;;4974852;28;20185;-72
2022/02/11 16:01:20;;;;;;;2.80;2.57;;;5.40;99.90;;;;;;4974787;28;20660;-73
2022/02/11 16:03:46;;;;;;;3.50;2.97;;;5.30;99.90;;;;;;4974774;28;20173;-72